Station Historical Data
Daily Summary for May 2, 2017 Units:  English    Metric   Both
« Previous Day
Next Day »
Daily Weekly Monthly Yearly Custom
  High: Low: Average:
Temperature: 77.9 °F 59.3 °F 68.3 °F
Dew Point: 57.6 °F 44.3 °F 51.7 °F
Humidity: 72 % 40 % 56 %
Wind Speed: 14.0 mph 0.0 mph 2.1 mph
Wind Gust: 22.0 mph - -
Wind:- - SSW
Pressure: 29.96 in 29.92 in -
Precipitation: 0.00 in    
Historical Graphs
 
 
Tabular Data for May 2, 2017
Time Temperature Dew Point Pressure Wind Wind Speed Wind Gust Humidity Rainfall Rate (Hourly) solar
00:02 62.9 °F 48.4 °F 29.96 in ENE 2.0 mph 3.0 mph 59 % 0.00 in 0.00 W/m2
00:07 62.8 °F 48.3 °F 29.96 in Calm   5.0 mph 59 % 0.00 in 0.00 W/m2
00:12 62.7 °F 48.2 °F 29.95 in East 2.0 mph 5.0 mph 59 % 0.00 in 0.00 W/m2
00:17 62.6 °F 47.6 °F 29.95 in East 1.0 mph 1.0 mph 58 % 0.00 in 0.00 W/m2
00:22 62.6 °F 48.1 °F 29.95 in East 1.0 mph 2.0 mph 59 % 0.00 in 0.00 W/m2
00:27 62.6 °F 47.6 °F 29.95 in Calm   6.0 mph 58 % 0.00 in 0.00 W/m2
00:32 62.5 °F 47.1 °F 29.95 in East 6.0 mph 6.0 mph 57 % 0.00 in 0.00 W/m2
00:37 62.5 °F 46.6 °F 29.96 in Calm   4.0 mph 56 % 0.00 in 0.00 W/m2
00:42 62.5 °F 46.6 °F 29.96 in ESE 1.0 mph 7.0 mph 56 % 0.00 in 0.00 W/m2
00:47 62.5 °F 46.6 °F 29.96 in East 1.0 mph 5.0 mph 56 % 0.00 in 0.00 W/m2
00:48 62.4 °F 46.5 °F 29.96 in East 4.0 mph 5.0 mph 56 % 0.00 in 0.00 W/m2
00:53 62.4 °F 47.0 °F 29.96 in Calm   5.0 mph 57 % 0.00 in 0.00 W/m2
00:58 62.4 °F 46.5 °F 29.96 in East 2.0 mph 6.0 mph 56 % 0.00 in 0.00 W/m2
01:03 62.3 °F 46.4 °F 29.96 in Calm   7.0 mph 56 % 0.00 in 0.00 W/m2
01:08 62.3 °F 46.4 °F 29.95 in ESE 2.0 mph 8.0 mph 56 % 0.00 in 0.00 W/m2
01:13 62.3 °F 46.0 °F 29.95 in ESE 5.0 mph 11.0 mph 55 % 0.00 in 0.00 W/m2
01:18 62.2 °F 46.3 °F 29.95 in East 2.0 mph 9.0 mph 56 % 0.00 in 0.00 W/m2
01:23 62.2 °F 45.8 °F 29.95 in East 5.0 mph 5.0 mph 55 % 0.00 in 0.00 W/m2
01:28 62.1 °F 45.8 °F 29.95 in East 6.0 mph 11.0 mph 55 % 0.00 in 0.00 W/m2
01:33 62.1 °F 46.2 °F 29.95 in Calm   6.0 mph 56 % 0.00 in 0.00 W/m2
01:38 62.0 °F 45.7 °F 29.95 in East 4.0 mph 9.0 mph 55 % 0.00 in 0.00 W/m2
01:43 62.0 °F 45.7 °F 29.95 in East 5.0 mph 9.0 mph 55 % 0.00 in 0.00 W/m2
01:48 62.0 °F 45.7 °F 29.94 in East 2.0 mph 7.0 mph 55 % 0.00 in 0.00 W/m2
01:53 61.9 °F 45.6 °F 29.95 in ESE 4.0 mph 8.0 mph 55 % 0.00 in 0.00 W/m2
01:58 61.9 °F 45.6 °F 29.94 in ESE 4.0 mph 7.0 mph 55 % 0.00 in 0.00 W/m2
02:03 61.9 °F 45.6 °F 29.94 in ESE 8.0 mph 8.0 mph 55 % 0.00 in 0.00 W/m2
02:08 61.9 °F 46.0 °F 29.94 in Calm   9.0 mph 56 % 0.00 in 0.00 W/m2
02:13 61.8 °F 46.4 °F 29.94 in Calm   6.0 mph 57 % 0.00 in 0.00 W/m2
02:18 61.7 °F 47.2 °F 29.94 in East 2.0 mph 7.0 mph 59 % 0.00 in 0.00 W/m2
02:23 61.5 °F 46.6 °F 29.93 in East 4.0 mph 5.0 mph 58 % 0.00 in 0.00 W/m2
02:28 61.4 °F 47.0 °F 29.93 in East 5.0 mph 8.0 mph 59 % 0.00 in 0.00 W/m2
02:33 61.3 °F 46.4 °F 29.93 in Calm   12.0 mph 58 % 0.00 in 0.00 W/m2
02:38 61.2 °F 45.4 °F 29.93 in East 1.0 mph 13.0 mph 56 % 0.00 in 0.00 W/m2
02:43 61.2 °F 45.9 °F 29.93 in Calm   5.0 mph 57 % 0.00 in 0.00 W/m2
02:48 61.2 °F 45.4 °F 29.93 in Calm   7.0 mph 56 % 0.00 in 0.00 W/m2
02:53 61.2 °F 45.4 °F 29.93 in Calm   6.0 mph 56 % 0.00 in 0.00 W/m2
02:58 61.2 °F 45.4 °F 29.93 in Calm   5.0 mph 56 % 0.00 in 0.00 W/m2
03:03 61.2 °F 45.4 °F 29.93 in East 2.0 mph 5.0 mph 56 % 0.00 in 0.00 W/m2
03:08 61.2 °F 45.4 °F 29.93 in ESE 2.0 mph 4.0 mph 56 % 0.00 in 0.00 W/m2
03:13 61.2 °F 45.9 °F 29.93 in East 1.0 mph 6.0 mph 57 % 0.00 in 0.00 W/m2
03:18 61.1 °F 47.1 °F 29.93 in Calm   1.0 mph 60 % 0.00 in 0.00 W/m2
03:23 60.9 °F 46.9 °F 29.94 in Calm   1.0 mph 60 % 0.00 in 0.00 W/m2
03:25 60.9 °F 46.5 °F 29.94 in Calm   1.0 mph 59 % 0.00 in 0.00 W/m2
03:30 60.7 °F 46.3 °F 29.94 in East 2.0 mph 6.0 mph 59 % 0.00 in 0.00 W/m2
03:35 60.5 °F 46.1 °F 29.94 in Calm   5.0 mph 59 % 0.00 in 0.00 W/m2
03:40 60.4 °F 46.0 °F 29.94 in East 2.0 mph 5.0 mph 59 % 0.00 in 0.00 W/m2
03:45 60.4 °F 46.5 °F 29.93 in Calm   3.0 mph 60 % 0.00 in 0.00 W/m2
03:50 60.2 °F 45.8 °F 29.93 in Calm   2.0 mph 59 % 0.00 in 0.00 W/m2
03:55 60.2 °F 44.9 °F 29.93 in Calm   3.0 mph 57 % 0.00 in 0.00 W/m2
04:00 60.2 °F 44.9 °F 29.93 in Calm   4.0 mph 57 % 0.00 in 0.00 W/m2
04:05 60.2 °F 45.4 °F 29.93 in Calm   5.0 mph 58 % 0.00 in 0.00 W/m2
04:10 60.2 °F 45.4 °F 29.93 in East 4.0 mph 4.0 mph 58 % 0.00 in 0.00 W/m2
04:15 60.2 °F 44.9 °F 29.93 in East 4.0 mph 5.0 mph 57 % 0.00 in 0.00 W/m2
04:20 60.2 °F 44.9 °F 29.93 in Calm   5.0 mph 57 % 0.00 in 0.00 W/m2
04:25 60.2 °F 44.9 °F 29.94 in East 4.0 mph 6.0 mph 57 % 0.00 in 0.00 W/m2
04:30 60.2 °F 44.9 °F 29.94 in East 1.0 mph 5.0 mph 57 % 0.00 in 0.00 W/m2
04:35 60.2 °F 44.9 °F 29.94 in East 1.0 mph 8.0 mph 57 % 0.00 in 0.00 W/m2
04:40 60.2 °F 44.9 °F 29.93 in ESE 1.0 mph 8.0 mph 57 % 0.00 in 0.00 W/m2
04:45 60.2 °F 44.5 °F 29.93 in Calm   7.0 mph 56 % 0.00 in 0.00 W/m2
04:50 60.3 °F 45.0 °F 29.93 in East 5.0 mph 6.0 mph 57 % 0.00 in 0.00 W/m2
04:55 60.4 °F 44.7 °F 29.93 in Calm   6.0 mph 56 % 0.00 in 0.00 W/m2
05:00 60.4 °F 45.1 °F 29.93 in Calm   6.0 mph 57 % 0.00 in 0.00 W/m2
05:05 60.5 °F 44.7 °F 29.93 in East 2.0 mph 6.0 mph 56 % 0.00 in 0.00 W/m2
05:10 60.5 °F 45.2 °F 29.93 in Calm   7.0 mph 57 % 0.00 in 0.00 W/m2
05:15 60.5 °F 44.7 °F 29.93 in East 4.0 mph 5.0 mph 56 % 0.00 in 0.00 W/m2
05:20 60.6 °F 44.8 °F 29.93 in East 3.0 mph 5.0 mph 56 % 0.00 in 0.00 W/m2
05:25 60.6 °F 45.3 °F 29.93 in East 4.0 mph 6.0 mph 57 % 0.00 in 0.00 W/m2
05:30 60.6 °F 44.4 °F 29.93 in East 1.0 mph 5.0 mph 55 % 0.00 in 0.00 W/m2
05:35 60.6 °F 45.3 °F 29.93 in East 1.0 mph 5.0 mph 57 % 0.00 in 0.00 W/m2
05:40 60.6 °F 44.4 °F 29.93 in Calm   5.0 mph 55 % 0.00 in 0.00 W/m2
05:45 60.7 °F 44.9 °F 29.93 in Calm   4.0 mph 56 % 0.00 in 0.00 W/m2
05:50 60.7 °F 44.9 °F 29.93 in East 2.0 mph 5.0 mph 56 % 0.00 in 0.00 W/m2
05:55 60.7 °F 44.9 °F 29.93 in East 1.0 mph 5.0 mph 56 % 0.00 in 0.00 W/m2
06:01 60.7 °F 44.9 °F 29.93 in Calm   5.0 mph 56 % 0.00 in 0.00 W/m2
06:06 60.7 °F 44.9 °F 29.93 in East 4.0 mph 4.0 mph 56 % 0.00 in 5.00 W/m2
06:11 60.6 °F 45.3 °F 29.93 in Calm   4.0 mph 57 % 0.00 in 7.00 W/m2
06:16 60.5 °F 44.3 °F 29.93 in Calm   5.0 mph 55 % 0.00 in 9.00 W/m2
06:21 60.5 °F 45.2 °F 29.93 in Calm   4.0 mph 57 % 0.00 in 12.00 W/m2
06:26 60.5 °F 45.7 °F 29.93 in Calm   5.0 mph 58 % 0.00 in 12.00 W/m2
06:31 60.4 °F 45.6 °F 29.93 in Calm   7.0 mph 58 % 0.00 in 16.00 W/m2
06:33 60.4 °F 45.1 °F 29.93 in East 1.0 mph 4.0 mph 57 % 0.00 in 19.00 W/m2
06:38 60.2 °F 44.9 °F 29.93 in East 5.0 mph 5.0 mph 57 % 0.00 in 26.00 W/m2
06:43 60.2 °F 45.4 °F 29.93 in East 4.0 mph 4.0 mph 58 % 0.00 in 33.00 W/m2
06:48 60.0 °F 45.2 °F 29.93 in East 2.0 mph 5.0 mph 58 % 0.00 in 49.00 W/m2
06:53 59.9 °F 45.5 °F 29.93 in Calm   4.0 mph 59 % 0.00 in 63.00 W/m2
06:58 59.7 °F 45.8 °F 29.94 in Calm   5.0 mph 60 % 0.00 in 83.00 W/m2
07:03 59.6 °F 46.6 °F 29.94 in ENE 2.0 mph 7.0 mph 62 % 0.00 in 83.00 W/m2
07:08 59.5 °F 46.1 °F 29.94 in ENE 8.0 mph 8.0 mph 61 % 0.00 in 116.00 W/m2
07:09 59.4 °F 46.4 °F 29.94 in Calm   8.0 mph 62 % 0.00 in 118.00 W/m2
07:14 59.4 °F 46.4 °F 29.94 in Calm   5.0 mph 62 % 0.00 in 139.00 W/m2
07:19 59.4 °F 46.8 °F 29.94 in ENE 2.0 mph 7.0 mph 63 % 0.00 in 146.00 W/m2
07:24 59.3 °F 46.3 °F 29.95 in Calm   5.0 mph 62 % 0.00 in 171.00 W/m2
07:29 59.4 °F 46.8 °F 29.95 in East 4.0 mph 8.0 mph 63 % 0.00 in 186.00 W/m2
07:34 59.6 °F 47.8 °F 29.95 in Calm   6.0 mph 65 % 0.00 in 229.00 W/m2
07:39 59.6 °F 47.8 °F 29.95 in East 8.0 mph 10.0 mph 65 % 0.00 in 237.00 W/m2
07:44 59.7 °F 47.9 °F 29.95 in East 6.0 mph 12.0 mph 65 % 0.00 in 257.00 W/m2
07:49 59.9 °F 48.1 °F 29.95 in Calm   5.0 mph 65 % 0.00 in 269.00 W/m2
07:54 60.0 °F 48.2 °F 29.95 in East 1.0 mph 5.0 mph 65 % 0.00 in 304.00 W/m2
07:59 60.1 °F 48.3 °F 29.95 in Calm   7.0 mph 65 % 0.00 in 323.00 W/m2
08:04 60.3 °F 48.5 °F 29.95 in East 8.0 mph 14.0 mph 65 % 0.00 in 338.00 W/m2
08:09 60.4 °F 49.0 °F 29.95 in Calm   9.0 mph 66 % 0.00 in 353.00 W/m2
08:14 60.7 °F 49.3 °F 29.95 in Calm   5.0 mph 66 % 0.00 in 374.00 W/m2
08:19 60.8 °F 49.4 °F 29.95 in East 5.0 mph 15.0 mph 66 % 0.00 in 378.00 W/m2
08:24 61.1 °F 49.7 °F 29.95 in East 1.0 mph 11.0 mph 66 % 0.00 in 413.00 W/m2
08:29 61.3 °F 50.7 °F 29.95 in ENE 4.0 mph 7.0 mph 68 % 0.00 in 432.00 W/m2
08:34 61.6 °F 51.0 °F 29.95 in ENE 4.0 mph 6.0 mph 68 % 0.00 in 408.00 W/m2
08:39 61.8 °F 50.3 °F 29.95 in Calm   7.0 mph 66 % 0.00 in 446.00 W/m2
08:44 62.1 °F 51.0 °F 29.95 in East 6.0 mph 8.0 mph 67 % 0.00 in 480.00 W/m2
08:50 62.4 °F 51.3 °F 29.95 in Calm   7.0 mph 67 % 0.00 in 492.00 W/m2
08:55 62.7 °F 51.6 °F 29.95 in East 1.0 mph 8.0 mph 67 % 0.00 in 515.00 W/m2
09:00 63.0 °F 51.9 °F 29.95 in East 6.0 mph 11.0 mph 67 % 0.00 in 538.00 W/m2
09:05 63.4 °F 51.4 °F 29.95 in Calm   8.0 mph 65 % 0.00 in 545.00 W/m2
09:10 63.7 °F 50.5 °F 29.95 in ENE 4.0 mph 7.0 mph 62 % 0.00 in 571.00 W/m2
09:15 64.2 °F 52.2 °F 29.95 in ENE 1.0 mph 5.0 mph 65 % 0.00 in 580.00 W/m2
09:20 64.7 °F 51.8 °F 29.95 in Calm   4.0 mph 63 % 0.00 in 598.00 W/m2
09:25 65.3 °F 52.0 °F 29.95 in Calm   7.0 mph 62 % 0.00 in 591.00 W/m2
09:30 65.9 °F 50.7 °F 29.95 in Calm   9.0 mph 58 % 0.00 in 598.00 W/m2
09:35 66.8 °F 52.0 °F 29.95 in NNE 1.0 mph 2.0 mph 59 % 0.00 in 624.00 W/m2
09:40 67.6 °F 52.3 °F 29.95 in Calm   1.0 mph 58 % 0.00 in 649.00 W/m2
09:45 68.2 °F 52.9 °F 29.95 in Calm   2.0 mph 58 % 0.00 in 652.00 W/m2
09:50 68.9 °F 53.5 °F 29.95 in Calm   5.0 mph 58 % 0.00 in 647.00 W/m2
09:55 69.6 °F 53.7 °F 29.95 in ENE 1.0 mph 5.0 mph 57 % 0.00 in 680.00 W/m2
10:00 70.0 °F 52.1 °F 29.95 in Calm   3.0 mph 53 % 0.00 in 715.00 W/m2
10:05 70.2 °F 52.8 °F 29.95 in NNW 2.0 mph 3.0 mph 54 % 0.00 in 689.00 W/m2
10:10 70.4 °F 50.9 °F 29.95 in WNW 2.0 mph 5.0 mph 50 % 0.00 in 698.00 W/m2
10:16 70.8 °F 50.7 °F 29.95 in NW 1.0 mph 6.0 mph 49 % 0.00 in 724.00 W/m2
10:21 71.2 °F 53.7 °F 29.95 in NW 1.0 mph 7.0 mph 54 % 0.00 in 733.00 W/m2
10:26 71.4 °F 51.3 °F 29.95 in Calm   4.0 mph 49 % 0.00 in 747.00 W/m2
10:31 71.7 °F 53.7 °F 29.95 in Calm   6.0 mph 53 % 0.00 in 742.00 W/m2
10:36 71.9 °F 52.8 °F 29.95 in WNW 1.0 mph 5.0 mph 51 % 0.00 in 744.00 W/m2
10:41 72.2 °F 50.9 °F 29.95 in WNW 3.0 mph 6.0 mph 47 % 0.00 in 786.00 W/m2
10:46 72.6 °F 50.7 °F 29.95 in WNW 2.0 mph 4.0 mph 46 % 0.00 in 803.00 W/m2
10:51 73.0 °F 51.0 °F 29.95 in Calm   1.0 mph 46 % 0.00 in 812.00 W/m2
10:56 73.3 °F 50.1 °F 29.95 in NW 7.0 mph 7.0 mph 44 % 0.00 in 814.00 W/m2
11:01 73.7 °F 48.6 °F 29.95 in NW 3.0 mph 8.0 mph 41 % 0.00 in 831.00 W/m2
11:06 74.0 °F 48.2 °F 29.95 in NW 3.0 mph 7.0 mph 40 % 0.00 in 835.00 W/m2
11:11 74.4 °F 51.1 °F 29.95 in NW 5.0 mph 7.0 mph 44 % 0.00 in 846.00 W/m2
11:16 74.8 °F 52.1 °F 29.95 in NW 3.0 mph 7.0 mph 45 % 0.00 in 854.00 W/m2
11:21 75.0 °F 52.2 °F 29.95 in NW 4.0 mph 7.0 mph 45 % 0.00 in 860.00 W/m2
11:26 75.3 °F 53.1 °F 29.95 in NW 3.0 mph 7.0 mph 46 % 0.00 in 861.00 W/m2
11:31 75.4 °F 53.8 °F 29.95 in WSW 4.0 mph 8.0 mph 47 % 0.00 in 879.00 W/m2
11:36 75.6 °F 55.7 °F 29.95 in West 1.0 mph 8.0 mph 50 % 0.00 in 879.00 W/m2
11:41 75.8 °F 54.7 °F 29.95 in WSW 8.0 mph 8.0 mph 48 % 0.00 in 865.00 W/m2
11:46 76.0 °F 54.9 °F 29.95 in West 5.0 mph 8.0 mph 48 % 0.00 in 895.00 W/m2
11:51 76.0 °F 54.9 °F 29.95 in WSW 7.0 mph 7.0 mph 48 % 0.00 in 884.00 W/m2
11:56 76.1 °F 54.4 °F 29.95 in West 6.0 mph 12.0 mph 47 % 0.00 in 900.00 W/m2
12:01 76.1 °F 53.8 °F 29.94 in Calm   8.0 mph 46 % 0.00 in 902.00 W/m2
12:06 76.2 °F 53.9 °F 29.95 in WNW 3.0 mph 10.0 mph 46 % 0.00 in 902.00 W/m2
12:11 76.5 °F 53.6 °F 29.95 in Calm   13.0 mph 45 % 0.00 in 919.00 W/m2
12:16 76.7 °F 53.8 °F 29.94 in WNW 6.0 mph 9.0 mph 45 % 0.00 in 914.00 W/m2
12:21 76.7 °F 53.2 °F 29.94 in WSW 10.0 mph 12.0 mph 44 % 0.00 in 912.00 W/m2
12:26 76.8 °F 53.9 °F 29.94 in West 3.0 mph 11.0 mph 45 % 0.00 in 925.00 W/m2
12:31 77.1 °F 54.2 °F 29.95 in WSW 1.0 mph 9.0 mph 45 % 0.00 in 921.00 W/m2
12:36 77.3 °F 54.9 °F 29.94 in WSW 4.0 mph 10.0 mph 46 % 0.00 in 923.00 W/m2
12:41 77.5 °F 54.5 °F 29.94 in WNW 4.0 mph 11.0 mph 45 % 0.00 in 918.00 W/m2
12:46 77.3 °F 54.9 °F 29.94 in NW 3.0 mph 8.0 mph 46 % 0.00 in 935.00 W/m2
12:51 77.3 °F 54.9 °F 29.94 in Calm   10.0 mph 46 % 0.00 in 923.00 W/m2
12:56 77.5 °F 56.3 °F 29.94 in WSW 3.0 mph 11.0 mph 48 % 0.00 in 933.00 W/m2
13:01 77.8 °F 55.4 °F 29.94 in WSW 2.0 mph 11.0 mph 46 % 0.00 in 930.00 W/m2
13:06 77.8 °F 56.0 °F 29.94 in Calm   7.0 mph 47 % 0.00 in 916.00 W/m2
13:11 77.8 °F 55.4 °F 29.94 in West 1.0 mph 9.0 mph 46 % 0.00 in 935.00 W/m2
13:16 77.7 °F 55.9 °F 29.94 in West 5.0 mph 9.0 mph 47 % 0.00 in 935.00 W/m2
13:21 77.7 °F 55.9 °F 29.94 in WNW 2.0 mph 15.0 mph 47 % 0.00 in 937.00 W/m2
13:26 77.7 °F 55.9 °F 29.94 in WNW 5.0 mph 12.0 mph 47 % 0.00 in 932.00 W/m2
13:31 77.5 °F 55.1 °F 29.94 in West 1.0 mph 12.0 mph 46 % 0.00 in 914.00 W/m2
13:36 77.5 °F 56.3 °F 29.94 in West 2.0 mph 10.0 mph 48 % 0.00 in 905.00 W/m2
13:41 77.6 °F 55.8 °F 29.94 in NW 5.0 mph 11.0 mph 47 % 0.00 in 902.00 W/m2
13:46 77.6 °F 55.8 °F 29.94 in Calm   12.0 mph 47 % 0.00 in 888.00 W/m2
13:51 77.4 °F 55.6 °F 29.94 in NW 2.0 mph 10.0 mph 47 % 0.00 in 895.00 W/m2
13:56 77.1 °F 55.9 °F 29.94 in Calm   14.0 mph 48 % 0.00 in 911.00 W/m2
14:01 77.1 °F 55.9 °F 29.94 in West 2.0 mph 7.0 mph 48 % 0.00 in 911.00 W/m2
14:06 77.0 °F 56.4 °F 29.94 in Calm   13.0 mph 49 % 0.00 in 904.00 W/m2
14:11 77.0 °F 55.2 °F 29.94 in NW 3.0 mph 9.0 mph 47 % 0.00 in 895.00 W/m2
14:16 76.9 °F 55.7 °F 29.94 in NW 2.0 mph 9.0 mph 48 % 0.00 in 884.00 W/m2
14:21 76.9 °F 55.7 °F 29.94 in West 5.0 mph 12.0 mph 48 % 0.00 in 868.00 W/m2
14:26 77.1 °F 55.3 °F 29.94 in NW 5.0 mph 12.0 mph 47 % 0.00 in 854.00 W/m2
14:31 77.1 °F 55.3 °F 29.94 in WSW 8.0 mph 8.0 mph 47 % 0.00 in 853.00 W/m2
14:36 77.2 °F 55.4 °F 29.94 in NW 6.0 mph 11.0 mph 47 % 0.00 in 844.00 W/m2
14:41 77.2 °F 54.8 °F 29.94 in Calm   11.0 mph 46 % 0.00 in 842.00 W/m2
14:46 77.1 °F 55.3 °F 29.94 in Calm   9.0 mph 47 % 0.00 in 835.00 W/m2
14:51 77.3 °F 55.5 °F 29.94 in NW 1.0 mph 11.0 mph 47 % 0.00 in 831.00 W/m2
14:56 77.3 °F 55.5 °F 29.94 in Calm   10.0 mph 47 % 0.00 in 821.00 W/m2
15:01 77.3 °F 56.1 °F 29.94 in WNW 8.0 mph 10.0 mph 48 % 0.00 in 809.00 W/m2
15:06 77.5 °F 56.3 °F 29.93 in West 7.0 mph 8.0 mph 48 % 0.00 in 798.00 W/m2
15:11 77.7 °F 56.5 °F 29.93 in West 8.0 mph 9.0 mph 48 % 0.00 in 784.00 W/m2
15:16 77.9 °F 55.5 °F 29.93 in WNW 5.0 mph 10.0 mph 46 % 0.00 in 773.00 W/m2
15:21 77.8 °F 55.4 °F 29.93 in WNW 3.0 mph 9.0 mph 46 % 0.00 in 766.00 W/m2
15:26 77.7 °F 55.9 °F 29.93 in Calm   11.0 mph 47 % 0.00 in 754.00 W/m2
15:31 77.5 °F 55.7 °F 29.93 in WNW 2.0 mph 11.0 mph 47 % 0.00 in 747.00 W/m2
15:36 77.3 °F 56.1 °F 29.93 in West 1.0 mph 10.0 mph 48 % 0.00 in 738.00 W/m2
15:41 77.2 °F 55.4 °F 29.93 in Calm   9.0 mph 47 % 0.00 in 726.00 W/m2
15:46 77.1 °F 55.9 °F 29.93 in Calm   13.0 mph 48 % 0.00 in 708.00 W/m2
15:51 77.2 °F 55.4 °F 29.93 in NW 6.0 mph 14.0 mph 47 % 0.00 in 693.00 W/m2
15:56 77.2 °F 55.4 °F 29.92 in West 4.0 mph 12.0 mph 47 % 0.00 in 687.00 W/m2
16:01 77.3 °F 56.1 °F 29.92 in NW 4.0 mph 10.0 mph 48 % 0.00 in 675.00 W/m2
16:06 77.3 °F 55.5 °F 29.92 in WNW 3.0 mph 7.0 mph 47 % 0.00 in 663.00 W/m2
16:11 77.4 °F 55.0 °F 29.92 in NW 6.0 mph 6.0 mph 46 % 0.00 in 647.00 W/m2
16:16 77.4 °F 55.6 °F 29.92 in Calm   5.0 mph 47 % 0.00 in 635.00 W/m2
16:21 77.3 °F 56.1 °F 29.92 in WNW 9.0 mph 9.0 mph 48 % 0.00 in 621.00 W/m2
16:26 77.3 °F 54.9 °F 29.92 in WNW 1.0 mph 2.0 mph 46 % 0.00 in 606.00 W/m2
16:31 77.3 °F 54.9 °F 29.92 in NW 1.0 mph 2.0 mph 46 % 0.00 in 592.00 W/m2
16:36 77.3 °F 55.5 °F 29.92 in Calm   7.0 mph 47 % 0.00 in 577.00 W/m2
16:41 77.3 °F 55.5 °F 29.92 in North 9.0 mph 13.0 mph 47 % 0.00 in 564.00 W/m2
16:46 77.3 °F 54.9 °F 29.92 in WNW 9.0 mph 10.0 mph 46 % 0.00 in 545.00 W/m2
16:51 77.3 °F 54.9 °F 29.92 in NW 5.0 mph 6.0 mph 46 % 0.00 in 531.00 W/m2
16:56 77.3 °F 55.5 °F 29.92 in Calm   1.0 mph 47 % 0.00 in 517.00 W/m2
17:01 77.3 °F 56.1 °F 29.92 in NW 6.0 mph 7.0 mph 48 % 0.00 in 504.00 W/m2
17:06 77.3 °F 55.5 °F 29.92 in WNW 4.0 mph 7.0 mph 47 % 0.00 in 489.00 W/m2
17:11 77.2 °F 54.8 °F 29.92 in Calm   6.0 mph 46 % 0.00 in 471.00 W/m2
17:16 77.1 °F 55.3 °F 29.92 in Calm   5.0 mph 47 % 0.00 in 457.00 W/m2
17:21 77.0 °F 55.8 °F 29.92 in WNW 1.0 mph 10.0 mph 48 % 0.00 in 439.00 W/m2
17:26 77.0 °F 55.8 °F 29.92 in NNW 6.0 mph 10.0 mph 48 % 0.00 in 422.00 W/m2
17:31 77.0 °F 55.2 °F 29.92 in West 1.0 mph 1.0 mph 47 % 0.00 in 404.00 W/m2
17:36 77.0 °F 55.8 °F 29.92 in WSW 1.0 mph 4.0 mph 48 % 0.00 in 388.00 W/m2
17:41 77.0 °F 55.8 °F 29.92 in WNW 1.0 mph 5.0 mph 48 % 0.00 in 376.00 W/m2
17:46 76.9 °F 55.7 °F 29.92 in Calm   2.0 mph 48 % 0.00 in 359.00 W/m2
17:51 76.9 °F 55.7 °F 29.92 in WNW 2.0 mph 5.0 mph 48 % 0.00 in 339.00 W/m2
17:56 76.7 °F 55.0 °F 29.92 in West 4.0 mph 5.0 mph 47 % 0.00 in 322.00 W/m2
18:01 76.6 °F 55.5 °F 29.92 in West 5.0 mph 5.0 mph 48 % 0.00 in 308.00 W/m2
18:06 76.5 °F 55.4 °F 29.92 in Calm   2.0 mph 48 % 0.00 in 290.00 W/m2
18:11 76.3 °F 55.2 °F 29.92 in NW 1.0 mph 5.0 mph 48 % 0.00 in 271.00 W/m2
18:16 76.2 °F 55.7 °F 29.92 in Calm   3.0 mph 49 % 0.00 in 257.00 W/m2
18:21 76.0 °F 56.0 °F 29.92 in Calm   2.0 mph 50 % 0.00 in 241.00 W/m2
18:26 75.9 °F 56.0 °F 29.92 in NNW 3.0 mph 5.0 mph 50 % 0.00 in 225.00 W/m2
18:32 75.7 °F 55.2 °F 29.92 in Calm   2.0 mph 49 % 0.00 in 207.00 W/m2
18:37 75.6 °F 56.2 °F 29.92 in WNW 4.0 mph 8.0 mph 51 % 0.00 in 192.00 W/m2
18:42 75.5 °F 55.6 °F 29.92 in Calm   5.0 mph 50 % 0.00 in 172.00 W/m2
18:47 75.2 °F 55.8 °F 29.92 in NW 5.0 mph 9.0 mph 51 % 0.00 in 151.00 W/m2
18:52 75.0 °F 56.2 °F 29.92 in NW 1.0 mph 5.0 mph 52 % 0.00 in 132.00 W/m2
18:57 74.7 °F 56.5 °F 29.92 in NW 2.0 mph 5.0 mph 53 % 0.00 in 113.00 W/m2
19:02 74.5 °F 56.3 °F 29.92 in WNW 1.0 mph 1.0 mph 53 % 0.00 in 95.00 W/m2
19:07 74.3 °F 56.6 °F 29.92 in WNW 3.0 mph 4.0 mph 54 % 0.00 in 77.00 W/m2
19:12 74.0 °F 56.3 °F 29.92 in WNW 2.0 mph 5.0 mph 54 % 0.00 in 63.00 W/m2
19:17 73.8 °F 57.6 °F 29.92 in NW 3.0 mph 3.0 mph 57 % 0.00 in 47.00 W/m2
19:22 73.6 °F 57.0 °F 29.92 in Calm     56 % 0.00 in 37.00 W/m2
19:27 73.4 °F 57.3 °F 29.92 in NW 1.0 mph 2.0 mph 57 % 0.00 in 26.00 W/m2
19:32 73.0 °F 56.9 °F 29.92 in Calm     57 % 0.00 in 19.00 W/m2
19:37 72.4 °F 57.3 °F 29.92 in Calm   3.0 mph 59 % 0.00 in 16.00 W/m2
19:42 71.9 °F 57.3 °F 29.92 in Calm   4.0 mph 60 % 0.00 in 14.00 W/m2
19:47 71.6 °F 57.0 °F 29.92 in Calm   2.0 mph 60 % 0.00 in 11.00 W/m2
19:52 71.3 °F 56.7 °F 29.92 in Calm     60 % 0.00 in 9.00 W/m2
19:57 71.1 °F 57.0 °F 29.92 in Calm     61 % 0.00 in 7.00 W/m2
20:02 70.7 °F 57.1 °F 29.92 in Calm     62 % 0.00 in 5.00 W/m2
20:07 70.2 °F 57.0 °F 29.92 in Calm     63 % 0.00 in 0.00 W/m2
20:12 69.7 °F 56.6 °F 29.92 in Calm     63 % 0.00 in 0.00 W/m2
20:17 69.4 °F 56.3 °F 29.92 in Calm     63 % 0.00 in 0.00 W/m2
20:22 69.2 °F 56.1 °F 29.93 in Calm     63 % 0.00 in 0.00 W/m2
20:27 69.0 °F 56.8 °F 29.93 in Calm     65 % 0.00 in 0.00 W/m2
20:32 68.8 °F 56.6 °F 29.93 in Calm     65 % 0.00 in 0.00 W/m2
20:37 68.6 °F 56.0 °F 29.93 in Calm     64 % 0.00 in 0.00 W/m2
20:42 68.2 °F 56.0 °F 29.93 in Calm     65 % 0.00 in 0.00 W/m2
20:47 67.8 °F 56.0 °F 29.93 in Calm     66 % 0.00 in 0.00 W/m2
20:53 67.5 °F 55.8 °F 29.93 in Calm     66 % 0.00 in 0.00 W/m2
20:58 67.2 °F 55.9 °F 29.94 in Calm     67 % 0.00 in 0.00 W/m2
21:03 67.0 °F 55.7 °F 29.94 in Calm     67 % 0.00 in 0.00 W/m2
21:08 66.9 °F 56.0 °F 29.94 in Calm     68 % 0.00 in 0.00 W/m2
21:13 66.8 °F 55.5 °F 29.94 in Calm     67 % 0.00 in 0.00 W/m2
21:18 66.7 °F 55.4 °F 29.94 in Calm     67 % 0.00 in 0.00 W/m2
21:23 66.6 °F 55.3 °F 29.94 in Calm     67 % 0.00 in 0.00 W/m2
21:28 66.6 °F 55.3 °F 29.94 in Calm     67 % 0.00 in 0.00 W/m2
21:33 66.6 °F 55.3 °F 29.94 in Calm     67 % 0.00 in 0.00 W/m2
21:38 66.6 °F 55.7 °F 29.95 in ENE 1.0 mph 4.0 mph 68 % 0.00 in 0.00 W/m2
21:43 66.5 °F 55.6 °F 29.95 in Calm   3.0 mph 68 % 0.00 in 0.00 W/m2
21:48 66.5 °F 55.6 °F 29.95 in East 1.0 mph 4.0 mph 68 % 0.00 in 0.00 W/m2
21:53 66.5 °F 55.6 °F 29.94 in Calm   5.0 mph 68 % 0.00 in 0.00 W/m2
21:58 66.5 °F 55.6 °F 29.95 in Calm   5.0 mph 68 % 0.00 in 0.00 W/m2
22:03 66.5 °F 55.6 °F 29.94 in Calm   8.0 mph 68 % 0.00 in 0.00 W/m2
22:08 66.4 °F 55.5 °F 29.95 in ESE 4.0 mph 9.0 mph 68 % 0.00 in 0.00 W/m2
22:13 66.4 °F 55.5 °F 29.95 in East 5.0 mph 5.0 mph 68 % 0.00 in 0.00 W/m2
22:18 66.4 °F 55.5 °F 29.95 in Calm   6.0 mph 68 % 0.00 in 0.00 W/m2
22:23 66.5 °F 55.6 °F 29.95 in Calm   5.0 mph 68 % 0.00 in 0.00 W/m2
22:28 66.5 °F 55.6 °F 29.95 in ESE 1.0 mph 4.0 mph 68 % 0.00 in 0.00 W/m2
22:33 66.6 °F 56.1 °F 29.94 in Calm   4.0 mph 69 % 0.00 in 0.00 W/m2
22:38 66.5 °F 56.4 °F 29.94 in Calm     70 % 0.00 in 0.00 W/m2
22:43 66.5 °F 56.0 °F 29.94 in East 2.0 mph 4.0 mph 69 % 0.00 in 0.00 W/m2
22:49 66.3 °F 56.2 °F 29.94 in ENE 2.0 mph 3.0 mph 70 % 0.00 in 0.00 W/m2
22:54 66.2 °F 56.1 °F 29.94 in East 4.0 mph 8.0 mph 70 % 0.00 in 0.00 W/m2
22:59 66.1 °F 56.4 °F 29.94 in ENE 10.0 mph 10.0 mph 71 % 0.00 in 0.00 W/m2
23:04 65.9 °F 56.2 °F 29.94 in Calm   5.0 mph 71 % 0.00 in 0.00 W/m2
23:09 65.8 °F 56.5 °F 29.94 in Calm   12.0 mph 72 % 0.00 in 0.00 W/m2
23:14 65.6 °F 56.0 °F 29.94 in Calm   4.0 mph 71 % 0.00 in 0.00 W/m2
23:19 65.5 °F 55.5 °F 29.94 in Calm   12.0 mph 70 % 0.00 in 0.00 W/m2
23:24 65.4 °F 55.4 °F 29.94 in East 1.0 mph 7.0 mph 70 % 0.00 in 0.00 W/m2
23:29 65.3 °F 54.9 °F 29.94 in Calm   16.0 mph 69 % 0.00 in 0.00 W/m2
23:34 65.4 °F 54.6 °F 29.94 in East 6.0 mph 16.0 mph 68 % 0.00 in 0.00 W/m2
23:39 65.4 °F 53.8 °F 29.94 in East 9.0 mph 19.0 mph 66 % 0.00 in 0.00 W/m2
23:44 65.5 °F 53.4 °F 29.94 in ESE 5.0 mph 15.0 mph 65 % 0.00 in 0.00 W/m2
23:49 65.6 °F 53.1 °F 29.94 in East 6.0 mph 19.0 mph 64 % 0.00 in 0.00 W/m2
23:54 65.8 °F 52.9 °F 29.94 in East 2.0 mph 14.0 mph 63 % 0.00 in 0.00 W/m2
23:55 65.8 °F 53.3 °F 29.94 in East 14.0 mph 14.0 mph 64 % 0.00 in 0.00 W/m2
23:59 65.9 °F 52.5 °F 29.94 in ESE 9.0 mph 22.0 mph 62 % 0.00 in 0.00 W/m2
Juneau County Weather
Compliments of Weather Underground - 4.5 mb
 WU-history PHP script courtesy of   Juneau County Weather.
powered by Cumulus v1.9.3 (1059)
Ambient Weather VWS v14.00
Top Contact Website Map Copyright © 2007 - 2018 Foresthillweather.com Never base important decisions on this or any weather information obtained from the Internet